Airfield :
LOGIN :

Register | Disclaimer

   EN    FR    IT 

 










Legend :    VFR   Marginal VFR   IFR   Intensive IFR   Very Intensive IFR
Visi :
Ceiling :
>= 8 km
>= 3000ft
5 to 8 km
1000 to 3000 ft
1500m to 5 km
500 to 1000 ft
800 to 1500m
200 to 500 ft
< 800m
< 200 ft
Symbols :   Thunderstorms  Fog  Heavy snow  Heavy precipitations  Wind > 20 kt
SIGMETs :     Misc.  Thunderstorms  Icing  Turbulence  Mountain Waves  Volcanic Ashes







- Airport Elevation : 348 ft
- IATA code : STN
- Download approach charts


EGSS - London Stansted

CURRENT METAR :
  • 191150Z AUTO 13010KT 9999 -RA NCD 16/15 Q1003

EXPIRED METARs :
  • 191120Z AUTO 12008KT 100V170 6000 -RA FEW034 15/15 Q1004
  • 191050Z AUTO 11010KT 080V150 4800 BR NCD 15/15 Q1004
  • 191020Z AUTO 10007KT 080V150 3400 BR SCT004 15/15 Q1005
  • 190950Z 10006KT 060V170 2600 BR BKN002 15/15 Q1005
  • 190920Z AUTO 10007KT 070V170 1400 R22/P1500 BR OVC001 15/15 Q1006

TAF TAF EGSS
Valid from the 19 at 12:00 until the 20 at 18:00 UTC


191105Z 1912/2018 12008KT 4500 BR FEW020
BECMG 1912/1915 18014KT 9999 NSW BKN008
PROB30
TEMPO 1912/1916 RADZ
BECMG 1916/1918 FEW020
TEMPO 1920/2003 7000 RA BKN014
PROB30
TEMPO 1920/2006 19015G25KT
PROB30
TEMPO 1920/1923 3000 +RA BKN006
BECMG 2003/2006 7000 -RADZ BKN008
PROB30
TEMPO 2005/2011 3000 RADZ BR BKN004
BECMG 2006/2009 24014KT
PROB30
TEMPO 2006/2015 25017G27KT
BECMG 2012/2015 9999 NSW FEW025
BECMG 2015/2018 19004KT
ATIS : +44 1279 669 325
No reported NOTAMs for that airfield.



MET'MAP, your aeronautical weather chart ! - Copyright ORBIFLY December 2007 - Disclaimer

ORBIFLY MET'MAP TEAM :

Programming & Development : Alexandra Zaïnal
Concept & Development : Baudouin d'Aumeries
Co-Development & Prog : Marc-Olivier Méhu
Technical & hardware support : Manuel Goepfert

Contact : metmap@orbifly.com




SOURCES & CREDITS :

   NOAA